Wetterdaten: aktuell Mittwoch, 08.07.2020 17:10
Datum Zeit Temperatur Luftfeuchte Luftdruck Regen Wind Richtung Richtung Sonnenschein ET UV Solar Taupunkt Windchill Windböen Empfang
08.07.2020 17:10 28,6 °C 34 % 1013,3 hPa 0,0 l/m² 6,9 km/h (2 Bft) W-SW 256 ° 10 min 0,406 mm 2,4 UV-I 530 W/m² 11,2 °C 28,6 °C 16,1 km/h (3 Bft) 100 %
08.07.2020 17:00 28,2 °C 35 % 1013,2 hPa 0,0 l/m² 6,3 km/h (2 Bft) W-NW 299 ° 10 min 0,000 mm 3,2 UV-I 630 W/m² 11,3 °C 28,2 °C 17,7 km/h (3 Bft) 100 %
08.07.2020 16:50 27,6 °C 37 % 1013,3 hPa 0,0 l/m² 5,6 km/h (1 Bft) SW 226 ° 10 min 0,000 mm 2,5 UV-I 396 W/m² 11,6 °C 27,6 °C 14,5 km/h (3 Bft) 100 %
08.07.2020 16:40 27,6 °C 36 % 1013,3 hPa 0,0 l/m² 6,4 km/h (2 Bft) W 268 ° 10 min 0,000 mm 2,6 UV-I 380 W/m² 11,2 °C 27,6 °C 14,5 km/h (3 Bft) 100 %
08.07.2020 16:30 27,6 °C 37 % 1013,3 hPa 0,0 l/m² 6,9 km/h (2 Bft) W 277 ° 10 min 0,000 mm 3,1 UV-I 490 W/m² 11,6 °C 27,6 °C 12,9 km/h (3 Bft) 100 %
08.07.2020 16:20 27,4 °C 37 % 1013,4 hPa 0,0 l/m² 7,0 km/h (2 Bft) W-NW 302 ° 10 min 0,000 mm 3,6 UV-I 556 W/m² 11,4 °C 27,4 °C 20,9 km/h (4 Bft) 99 %
08.07.2020 16:10 27,2 °C 37 % 1013,5 hPa 0,0 l/m² 7,3 km/h (2 Bft) S-SO 164 ° 10 min 0,432 mm 3,4 UV-I 463 W/m² 11,2 °C 27,2 °C 16,1 km/h (3 Bft) 97 %
08.07.2020 16:00 27,1 °C 37 % 1013,5 hPa 0,0 l/m² 7,0 km/h (2 Bft) N-NW 331 ° 10 min 0,000 mm 3,3 UV-I 425 W/m² 11,1 °C 27,1 °C 19,3 km/h (3 Bft) 97 %
08.07.2020 15:50 27,2 °C 37 % 1013,6 hPa 0,0 l/m² 8,5 km/h (2 Bft) W 275 ° 10 min 0,000 mm 3,4 UV-I 414 W/m² 11,2 °C 27,2 °C 22,5 km/h (4 Bft) 98 %
08.07.2020 15:40 27,5 °C 36 % 1013,5 hPa 0,0 l/m² 10,0 km/h (2 Bft) W-NW 284 ° 10 min 0,000 mm 4,2 UV-I 574 W/m² 11,1 °C 27,5 °C 19,3 km/h (3 Bft) 100 %
08.07.2020 15:30 27,3 °C 36 % 1013,5 hPa 0,0 l/m² 10,8 km/h (2 Bft) W 279 ° 10 min 0,000 mm 5,0 UV-I 639 W/m² 10,9 °C 27,3 °C 20,9 km/h (4 Bft) 100 %
08.07.2020 15:20 27,2 °C 36 % 1013,6 hPa 0,0 l/m² 8,3 km/h (2 Bft) NW 307 ° 10 min 0,000 mm 4,3 UV-I 499 W/m² 10,8 °C 27,2 °C 19,3 km/h (3 Bft) 100 %
08.07.2020 15:10 27,4 °C 35 % 1013,8 hPa 0,0 l/m² 9,7 km/h (2 Bft) W-NW 286 ° 10 min 0,635 mm 4,4 UV-I 501 W/m² 10,6 °C 27,4 °C 19,3 km/h (3 Bft) 100 %
08.07.2020 15:00 27,8 °C 35 % 1014,0 hPa 0,0 l/m² 7,3 km/h (2 Bft) W 269 ° 10 min 0,000 mm 4,7 UV-I 539 W/m² 10,9 °C 27,8 °C 22,5 km/h (4 Bft) 100 %
08.07.2020 14:50 28,2 °C 34 % 1014,0 hPa 0,0 l/m² 8,7 km/h (2 Bft) W 275 ° 10 min 0,000 mm 5,7 UV-I 748 W/m² 10,8 °C 28,2 °C 20,9 km/h (4 Bft) 100 %
08.07.2020 14:40 27,9 °C 34 % 1014,0 hPa 0,0 l/m² 6,4 km/h (2 Bft) W 272 ° 10 min 0,000 mm 6,9 UV-I 935 W/m² 10,6 °C 27,9 °C 16,1 km/h (3 Bft) 100 %
08.07.2020 14:30 27,5 °C 34 % 1014,0 hPa 0,0 l/m² 11,9 km/h (2 Bft) W 269 ° 10 min 0,000 mm 7,0 UV-I 866 W/m² 10,2 °C 27,5 °C 19,3 km/h (3 Bft) 100 %
08.07.2020 14:20 27,7 °C 34 % 1014,0 hPa 0,0 l/m² 7,2 km/h (2 Bft) W-NW 289 ° 10 min 0,000 mm 6,8 UV-I 897 W/m² 10,4 °C 27,7 °C 16,1 km/h (3 Bft) 100 %
08.07.2020 14:10 27,7 °C 35 % 1014,2 hPa 0,0 l/m² 11,8 km/h (2 Bft) W 281 ° 10 min 0,635 mm 7,8 UV-I 1042 W/m² 10,8 °C 27,7 °C 30,6 km/h (5 Bft) 98 %
08.07.2020 14:00 27,3 °C 36 % 1014,2 hPa 0,0 l/m² 10,9 km/h (2 Bft) S 170 ° 10 min 0,000 mm 7,8 UV-I 978 W/m² 10,9 °C 27,3 °C 27,4 km/h (4 Bft) 97 %
08.07.2020 13:50 27,3 °C 37 % 1014,5 hPa 0,0 l/m² 6,5 km/h (2 Bft) S-SW 212 ° 10 min 0,000 mm 7,8 UV-I 916 W/m² 11,3 °C 27,3 °C 22,5 km/h (4 Bft) 97 %
08.07.2020 13:40 27,0 °C 38 % 1014,6 hPa 0,0 l/m² 9,6 km/h (2 Bft) W 278 ° 10 min 0,000 mm 7,7 UV-I 857 W/m² 11,5 °C 27,0 °C 20,9 km/h (4 Bft) 97 %
08.07.2020 13:30 26,9 °C 38 % 1014,7 hPa 0,0 l/m² 9,0 km/h (2 Bft) S 185 ° 10 min 0,000 mm 8,1 UV-I 971 W/m² 11,4 °C 26,9 °C 20,9 km/h (4 Bft) 100 %
08.07.2020 13:20 26,0 °C 40 % 1014,8 hPa 0,0 l/m² 8,2 km/h (2 Bft) NW 304 ° 10 min 0,000 mm 7,5 UV-I 829 W/m² 11,3 °C 26,0 °C 17,7 km/h (3 Bft) 100 %
08.07.2020 13:10 25,8 °C 40 % 1014,9 hPa 0,0 l/m² 8,1 km/h (2 Bft) S-SO 168 ° 10 min 0,406 mm 5,7 UV-I 563 W/m² 11,2 °C 25,8 °C 20,9 km/h (4 Bft) 100 %
08.07.2020 13:00 25,6 °C 41 % 1015,0 hPa 0,0 l/m² 8,1 km/h (2 Bft) S-SW 195 ° 10 min 0,000 mm 5,6 UV-I 487 W/m² 11,4 °C 25,6 °C 20,9 km/h (4 Bft) 100 %
08.07.2020 12:50 25,4 °C 43 % 1015,0 hPa 0,0 l/m² 5,3 km/h (1 Bft) S-SO 158 ° 10 min 0,000 mm 5,4 UV-I 567 W/m² 11,9 °C 25,4 °C 16,1 km/h (3 Bft) 100 %
08.07.2020 12:40 25,1 °C 41 % 1015,1 hPa 0,0 l/m² 2,8 km/h (1 Bft) SW 215 ° 10 min 0,000 mm 3,8 UV-I 303 W/m² 10,9 °C 25,1 °C 12,9 km/h (3 Bft) 100 %
08.07.2020 12:30 25,4 °C 40 % 1015,3 hPa 0,0 l/m² 4,6 km/h (1 Bft) SW 227 ° 10 min 0,000 mm 3,9 UV-I 365 W/m² 10,8 °C 25,4 °C 14,5 km/h (3 Bft) 100 %
08.07.2020 12:20 25,6 °C 41 % 1015,3 hPa 0,0 l/m² 5,5 km/h (1 Bft) S-SW 198 ° 10 min 0,000 mm 5,9 UV-I 711 W/m² 11,4 °C 25,6 °C 19,3 km/h (3 Bft) 100 %
08.07.2020 12:10 25,1 °C 41 % 1015,4 hPa 0,0 l/m² 3,9 km/h (1 Bft) SW 226 ° 10 min 0,432 mm 6,9 UV-I 819 W/m² 10,9 °C 25,1 °C 12,9 km/h (3 Bft) 98 %
08.07.2020 12:00 24,7 °C 42 % 1015,5 hPa 0,0 l/m² 2,8 km/h (1 Bft) S-SW 204 ° 10 min 0,000 mm 4,4 UV-I 363 W/m² 10,9 °C 24,7 °C 11,3 km/h (2 Bft) 98 %
08.07.2020 11:50 24,8 °C 41 % 1015,5 hPa 0,0 l/m² 2,9 km/h (1 Bft) S-SO 148 ° 10 min 0,000 mm 4,5 UV-I 275 W/m² 10,6 °C 24,8 °C 9,7 km/h (2 Bft) 97 %
08.07.2020 11:40 25,2 °C 40 % 1015,7 hPa 0,0 l/m² 3,4 km/h (1 Bft) SW 219 ° 10 min 0,000 mm 6,1 UV-I 688 W/m² 10,6 °C 25,2 °C 16,1 km/h (3 Bft) 98 %
08.07.2020 11:30 25,3 °C 41 % 1015,7 hPa 0,0 l/m² 3,5 km/h (1 Bft) S-SW 197 ° 10 min 0,000 mm 6,7 UV-I 917 W/m² 11,1 °C 25,3 °C 12,9 km/h (3 Bft) 100 %
08.07.2020 11:20 24,8 °C 41 % 1015,8 hPa 0,0 l/m² 4,5 km/h (1 Bft) W 271 ° 10 min 0,000 mm 6,3 UV-I 715 W/m² 10,6 °C 24,8 °C 11,3 km/h (2 Bft) 100 %
08.07.2020 11:10 24,7 °C 41 % 1015,9 hPa 0,0 l/m² 3,6 km/h (1 Bft) W-SW 246 ° 10 min 0,457 mm 6,2 UV-I 833 W/m² 10,6 °C 24,7 °C 11,3 km/h (2 Bft) 100 %
08.07.2020 11:00 24,5 °C 44 % 1016,0 hPa 0,0 l/m² 3,4 km/h (1 Bft) W 277 ° 10 min 0,000 mm 6,1 UV-I 813 W/m² 11,4 °C 24,5 °C 12,9 km/h (3 Bft) 100 %
08.07.2020 10:50 24,1 °C 44 % 1016,0 hPa 0,0 l/m² 3,7 km/h (1 Bft) S 189 ° 10 min 0,000 mm 5,7 UV-I 767 W/m² 11,1 °C 24,1 °C 11,3 km/h (2 Bft) 100 %
08.07.2020 10:40 23,9 °C 49 % 1016,0 hPa 0,0 l/m² 2,6 km/h (1 Bft) S-SW 213 ° 10 min 0,000 mm 5,3 UV-I 748 W/m² 12,5 °C 23,9 °C 11,3 km/h (2 Bft) 100 %
08.07.2020 10:30 23,7 °C 51 % 1016,1 hPa 0,0 l/m² 1,7 km/h (1 Bft) S-SO 163 ° 10 min 0,000 mm 4,9 UV-I 694 W/m² 13,0 °C 23,7 °C 8,0 km/h (2 Bft) 100 %
08.07.2020 10:20 23,0 °C 51 % 1016,2 hPa 0,0 l/m² 1,3 km/h (1 Bft) N-NO 31 ° 10 min 0,000 mm 4,2 UV-I 623 W/m² 12,3 °C 23,0 °C 6,4 km/h (2 Bft) 100 %
08.07.2020 10:10 22,5 °C 53 % 1016,3 hPa 0,0 l/m² 1,5 km/h (1 Bft) NW 312 ° 10 min 0,330 mm 4,1 UV-I 647 W/m² 12,4 °C 22,5 °C 6,4 km/h (2 Bft) 100 %
08.07.2020 10:00 22,1 °C 57 % 1016,4 hPa 0,0 l/m² 1,6 km/h (1 Bft) NW 310 ° 10 min 0,000 mm 4,1 UV-I 641 W/m² 13,2 °C 22,1 °C 9,7 km/h (2 Bft) 98 %
08.07.2020 09:50 21,3 °C 58 % 1016,4 hPa 0,0 l/m² 0,2 km/h (0 Bft) NW 316 ° 10 min 0,000 mm 3,9 UV-I 633 W/m² 12,7 °C 21,3 °C 3,2 km/h (1 Bft) 97 %
08.07.2020 09:40 20,8 °C 59 % 1016,4 hPa 0,0 l/m² 1,3 km/h (1 Bft) NW 316 ° 10 min 0,000 mm 3,3 UV-I 535 W/m² 12,5 °C 20,8 °C 8,0 km/h (2 Bft) 97 %
08.07.2020 09:30 20,2 °C 60 % 1016,5 hPa 0,0 l/m² 0,5 km/h (0 Bft) NW 322 ° 10 min 0,000 mm 3,4 UV-I 588 W/m² 12,2 °C 20,2 °C 3,2 km/h (1 Bft) 98 %
08.07.2020 09:20 19,7 °C 60 % 1016,6 hPa 0,0 l/m² 0,7 km/h (0 Bft) NW 322 ° 10 min 0,000 mm 3,1 UV-I 542 W/m² 11,7 °C 19,7 °C 3,2 km/h (1 Bft) 99 %
08.07.2020 09:10 19,1 °C 61 % 1016,7 hPa 0,0 l/m² 0,8 km/h (0 Bft) NW 322 ° 10 min 0,000 mm 2,8 UV-I 523 W/m² 11,4 °C 19,1 °C 4,8 km/h (1 Bft) 100 %
08.07.2020 09:00 18,5 °C 62 % 1016,8 hPa 0,0 l/m² 0,8 km/h (0 Bft) NW 322 ° 10 min 0,229 mm 2,5 UV-I 492 W/m² 11,1 °C 18,5 °C 3,2 km/h (1 Bft) 100 %
08.07.2020 08:50 18,1 °C 64 % 1016,8 hPa 0,0 l/m² 0,5 km/h (0 Bft) NW 322 ° 10 min 0,000 mm 2,3 UV-I 464 W/m² 11,2 °C 18,1 °C 4,8 km/h (1 Bft) 100 %
08.07.2020 08:40 17,7 °C 66 % 1016,8 hPa 0,0 l/m² 0,9 km/h (0 Bft) NW 322 ° 10 min 0,000 mm 2,1 UV-I 438 W/m² 11,3 °C 17,7 °C 4,8 km/h (1 Bft) 100 %
08.07.2020 08:30 16,9 °C 67 % 1016,8 hPa 0,0 l/m² 0,0 km/h (0 Bft) NW 322 ° 10 min 0,000 mm 1,8 UV-I 399 W/m² 10,7 °C 16,9 °C 0,0 km/h (0 Bft) 100 %
08.07.2020 08:20 16,2 °C 71 % 1016,8 hPa 0,0 l/m² 0,0 km/h (0 Bft) NW 322 ° 10 min 0,000 mm 1,6 UV-I 394 W/m² 10,9 °C 16,2 °C 0,0 km/h (0 Bft) 100 %
08.07.2020 08:10 15,6 °C 71 % 1016,8 hPa 0,0 l/m² 0,0 km/h (0 Bft) NW 322 ° 10 min 0,000 mm 1,3 UV-I 208 W/m² 10,4 °C 15,6 °C 0,0 km/h (0 Bft) 100 %
08.07.2020 08:00 15,4 °C 72 % 1016,8 hPa 0,0 l/m² 0,0 km/h (0 Bft) NW 322 ° 10 min 0,127 mm 1,1 UV-I 172 W/m² 10,4 °C 15,4 °C 0,0 km/h (0 Bft) 98 %
08.07.2020 07:50 15,2 °C 73 % 1016,8 hPa 0,0 l/m² 0,0 km/h (0 Bft) NW 322 ° 10 min 0,000 mm 1,1 UV-I 310 W/m² 10,4 °C 15,2 °C 0,0 km/h (0 Bft) 97 %
08.07.2020 07:40 14,6 °C 74 % 1016,8 hPa 0,0 l/m² 0,0 km/h (0 Bft) NW 322 ° 10 min 0,000 mm 1,0 UV-I 280 W/m² 10,0 °C 14,6 °C 0,0 km/h (0 Bft) 97 %
08.07.2020 07:30 13,9 °C 78 % 1016,8 hPa 0,0 l/m² 0,0 km/h (0 Bft) NW 322 ° 10 min 0,000 mm 0,9 UV-I 290 W/m² 10,1 °C 13,9 °C 0,0 km/h (0 Bft) 98 %
08.07.2020 07:20 13,0 °C 81 % 1016,8 hPa 0,0 l/m² 0,0 km/h (0 Bft) NW 322 ° 10 min 0,000 mm 0,8 UV-I 292 W/m² 9,8 °C 13,0 °C 0,0 km/h (0 Bft) 99 %
08.07.2020 07:10 12,2 °C 84 % 1016,8 hPa 0,0 l/m² 0,0 km/h (0 Bft) NW 322 ° 10 min 0,000 mm 0,6 UV-I 157 W/m² 9,6 °C 12,2 °C 0,0 km/h (0 Bft) 100 %
08.07.2020 07:00 11,9 °C 85 % 1016,9 hPa 0,0 l/m² 0,0 km/h (0 Bft) NW 322 ° 10 min 0,051 mm 0,5 UV-I 105 W/m² 9,5 °C 11,9 °C 0,0 km/h (0 Bft) 100 %
08.07.2020 06:50 11,6 °C 88 % 1016,8 hPa 0,0 l/m² 0,0 km/h (0 Bft) NW 322 ° 0 min 0,000 mm 0,1 UV-I 93 W/m² 9,7 °C 11,6 °C 0,0 km/h (0 Bft) 100 %
08.07.2020 06:40 11,1 °C 90 % 1016,8 hPa 0,0 l/m² 0,0 km/h (0 Bft) NW 322 ° 10 min 0,000 mm 0,0 UV-I 110 W/m² 9,5 °C 11,1 °C 0,0 km/h (0 Bft) 100 %
08.07.2020 06:30 10,4 °C 89 % 1016,7 hPa 0,0 l/m² 0,0 km/h (0 Bft) NW 322 ° 10 min 0,000 mm 0,0 UV-I 110 W/m² 8,7 °C 10,4 °C 0,0 km/h (0 Bft) 99 %
08.07.2020 06:20 9,7 °C 89 % 1016,7 hPa 0,0 l/m² 0,0 km/h (0 Bft) NW 322 ° 0 min 0,000 mm 0,0 UV-I 79 W/m² 8,0 °C 9,7 °C 0,0 km/h (0 Bft) 100 %
08.07.2020 06:10 9,4 °C 92 % 1016,7 hPa 0,0 l/m² 0,0 km/h (0 Bft) NW 322 ° 0 min 0,000 mm 0,0 UV-I 55 W/m² 8,2 °C 9,4 °C 0,0 km/h (0 Bft) 100 %
08.07.2020 06:00 9,3 °C 88 % 1016,7 hPa 0,0 l/m² 0,0 km/h (0 Bft) NW 322 ° 0 min 0,000 mm 0,0 UV-I 23 W/m² 7,4 °C 9,3 °C 0,0 km/h (0 Bft) 100 %
08.07.2020 05:50 9,4 °C 88 % 1016,7 hPa 0,0 l/m² 0,0 km/h (0 Bft) NW 322 ° 0 min 0,000 mm 0,0 UV-I 17 W/m² 7,5 °C 9,4 °C 0,0 km/h (0 Bft) 100 %
_ Min-Zeit 05:30 14:20 17:00 - 20:40 - - - - - - 05:10 06:00 22:10 18:10
Minimum _ 9,3 °C 34 % 1013,2 hPa - 0,0 km/h (0 Bft) - - - - - - 7,3 °C 9,3 °C 0,0 km/h (0 Bft) 96 %
_ Max-Zeit 17:10 06:10 23:20 18:00 14:30 - - 18:00 14:10 13:30 14:10 10:00 17:10 14:10 18:40
Maximum _ 28,6 °C 92 % 1017,5 hPa 0,0 l/m² 11,9 km/h
W (2 Bft)
- - 10 min 0,635 mm 8,1 UV-I 1042 W/m² 13,2 °C 28,6 °C 30,6 km/h
S-SO (5 Bft)
100 %
Durchschnitt _ 19,1 °C 58 % 1016,3 hPa #0,0 l/m² 2,4 km/h (1 Bft) W - #10:40 h #4,216 mm 4,2 UV-I 346 W/m² 9,7 °C 19,1 °C 7,1 km/h (2 Bft) 99 %